createdAt,value
2022-12-11T00:00:50.647Z,1011.98
2022-12-11T00:01:51.085Z,1011.97
2022-12-11T00:02:51.429Z,1011.92
2022-12-11T00:03:51.737Z,1011.97
2022-12-11T00:04:52.076Z,1011.91
2022-12-11T00:05:52.431Z,1011.98
2022-12-11T00:06:52.835Z,1011.93
2022-12-11T00:07:53.249Z,1011.90
2022-12-11T00:08:53.525Z,1011.90
2022-12-11T00:09:53.880Z,1011.91
2022-12-11T00:10:54.242Z,1011.87
2022-12-11T00:11:54.594Z,1011.90
2022-12-11T00:12:54.938Z,1011.86
2022-12-11T00:13:55.296Z,1011.88
2022-12-11T00:14:55.681Z,1011.87
2022-12-11T00:15:56.040Z,1011.84
2022-12-11T00:16:56.469Z,1011.87
2022-12-11T00:17:56.794Z,1011.90
2022-12-11T00:18:57.151Z,1011.86
2022-12-11T00:19:57.503Z,1011.85
2022-12-11T00:20:57.867Z,1011.85
2022-12-11T00:21:58.236Z,1011.86
2022-12-11T00:22:58.585Z,1011.85
2022-12-11T00:23:58.946Z,1011.86
2022-12-11T00:24:59.429Z,1011.89
2022-12-11T00:25:59.678Z,1011.86
2022-12-11T00:27:00.073Z,1011.87
2022-12-11T00:28:00.408Z,1011.89
2022-12-11T00:29:00.779Z,1011.84
2022-12-11T00:30:01.131Z,1011.83
2022-12-11T00:31:01.489Z,1011.84
2022-12-11T00:32:01.973Z,1011.84
2022-12-11T00:33:02.233Z,1011.84
2022-12-11T00:34:02.588Z,1011.82
2022-12-11T00:35:02.945Z,1011.87
2022-12-11T00:36:03.317Z,1011.84
2022-12-11T00:37:03.755Z,1011.86
2022-12-11T00:38:04.011Z,1011.83
2022-12-11T00:39:04.381Z,1011.85
2022-12-11T00:40:04.739Z,1011.87
2022-12-11T00:41:05.094Z,1011.89
2022-12-11T00:42:05.517Z,1011.84
2022-12-11T00:43:05.793Z,1011.87
2022-12-11T00:44:06.155Z,1011.90
2022-12-11T00:45:06.520Z,1011.87
2022-12-11T00:46:06.987Z,1011.86
2022-12-11T00:47:07.264Z,1011.92
2022-12-11T00:48:07.617Z,1011.85
2022-12-11T00:49:07.980Z,1011.86
2022-12-11T00:50:08.337Z,1011.87
2022-12-11T00:51:08.691Z,1011.92
2022-12-11T00:52:09.066Z,1011.89
2022-12-11T00:53:09.421Z,1011.93
2022-12-11T00:54:09.772Z,1011.89
2022-12-11T00:55:10.488Z,1011.90
2022-12-11T00:56:10.516Z,1011.89
2022-12-11T00:57:10.886Z,1011.90
2022-12-11T00:58:11.233Z,1011.92
2022-12-11T00:59:11.599Z,1011.96
2022-12-11T01:00:11.958Z,1011.99
2022-12-11T01:01:12.466Z,1011.95
2022-12-11T01:02:12.681Z,1011.95
2022-12-11T01:03:13.096Z,1011.92
2022-12-11T01:04:13.397Z,1011.92
2022-12-11T01:05:13.746Z,1011.93
2022-12-11T01:06:14.097Z,1011.93
2022-12-11T01:07:14.493Z,1011.93
2022-12-11T01:08:14.837Z,1011.91
2022-12-11T01:09:15.208Z,1011.95
2022-12-11T01:10:15.561Z,1011.93
2022-12-11T01:11:15.942Z,1011.90
2022-12-11T01:12:16.301Z,1011.92
2022-12-11T01:13:16.647Z,1011.90
2022-12-11T01:14:17.009Z,1011.94
2022-12-11T01:15:17.367Z,1011.89
2022-12-11T01:16:17.749Z,1011.87
2022-12-11T01:17:18.097Z,1011.84
2022-12-11T01:18:18.446Z,1011.87
2022-12-11T01:19:18.801Z,1011.90
2022-12-11T01:20:19.163Z,1011.84
2022-12-11T01:21:19.544Z,1011.89
2022-12-11T01:22:19.915Z,1011.89
2022-12-11T01:23:20.265Z,1011.90
2022-12-11T01:24:20.624Z,1011.89
2022-12-11T01:25:20.979Z,1011.95
2022-12-11T01:26:21.343Z,1011.95
2022-12-11T01:27:21.711Z,1011.93
2022-12-11T01:28:22.069Z,1011.99
2022-12-11T01:29:22.426Z,1011.91
2022-12-11T01:30:22.775Z,1011.95
2022-12-11T01:31:23.138Z,1011.87
2022-12-11T01:32:23.518Z,1011.93
2022-12-11T01:33:23.868Z,1011.89
2022-12-11T01:34:24.221Z,1011.92
2022-12-11T01:35:24.602Z,1011.92
2022-12-11T01:36:24.981Z,1011.98
2022-12-11T01:37:25.346Z,1012.00
2022-12-11T01:38:25.694Z,1011.99
2022-12-11T01:39:26.060Z,1012.01
2022-12-11T01:40:26.428Z,1011.99
2022-12-11T01:41:26.783Z,1011.96
2022-12-11T01:42:27.201Z,1011.93
2022-12-11T01:43:27.520Z,1011.91
2022-12-11T01:44:27.887Z,1011.91
2022-12-11T01:45:28.272Z,1011.88
2022-12-11T01:46:28.642Z,1011.95
2022-12-11T01:47:28.965Z,1011.92
2022-12-11T01:48:29.322Z,1011.93
2022-12-11T01:49:29.686Z,1011.93
2022-12-11T01:50:30.040Z,1011.94
2022-12-11T01:51:30.402Z,1011.95
2022-12-11T01:52:30.797Z,1011.94
2022-12-11T01:53:31.107Z,1011.93
2022-12-11T01:54:31.471Z,1011.92
2022-12-11T01:55:31.814Z,1011.92
2022-12-11T01:56:32.170Z,1011.93
2022-12-11T01:57:32.564Z,1011.92
2022-12-11T01:58:32.888Z,1011.90
2022-12-11T01:59:33.237Z,1011.89
2022-12-11T02:00:33.604Z,1011.96
2022-12-11T02:01:33.998Z,1011.93
2022-12-11T02:02:34.400Z,1011.96
2022-12-11T02:03:34.696Z,1011.96
2022-12-11T02:04:35.096Z,1011.95
2022-12-11T02:05:35.475Z,1011.93
2022-12-11T02:06:35.813Z,1011.95
2022-12-11T02:07:36.180Z,1011.96
2022-12-11T02:08:36.536Z,1011.95
2022-12-11T02:09:36.892Z,1011.96
2022-12-11T02:10:37.252Z,1011.94
2022-12-11T02:11:37.608Z,1011.95
2022-12-11T02:12:37.983Z,1011.94
2022-12-11T02:13:38.339Z,1011.94
2022-12-11T02:14:38.695Z,1011.95
2022-12-11T02:15:39.052Z,1011.91
2022-12-11T02:16:39.490Z,1011.96
2022-12-11T02:17:39.817Z,1011.91
2022-12-11T02:18:40.158Z,1011.92
2022-12-11T02:19:40.524Z,1011.90
2022-12-11T02:20:40.884Z,1011.91
2022-12-11T02:21:41.228Z,1011.87
2022-12-11T02:22:41.601Z,1011.90
2022-12-11T02:23:41.961Z,1011.94
2022-12-11T02:24:42.306Z,1011.91
2022-12-11T02:25:42.670Z,1011.92
2022-12-11T02:26:43.022Z,1011.93
2022-12-11T02:27:43.393Z,1011.93
2022-12-11T02:28:43.749Z,1011.89
2022-12-11T02:29:44.098Z,1011.92
2022-12-11T02:30:44.456Z,1011.91
2022-12-11T02:31:44.840Z,1011.90
2022-12-11T02:32:45.207Z,1011.85
2022-12-11T02:33:45.545Z,1011.89
2022-12-11T02:34:45.909Z,1011.91
2022-12-11T02:35:46.251Z,1011.91
2022-12-11T02:36:46.660Z,1011.89
2022-12-11T02:37:46.992Z,1011.88
2022-12-11T02:38:47.344Z,1011.88
2022-12-11T02:39:47.702Z,1011.89
2022-12-11T02:40:48.073Z,1011.86
2022-12-11T02:41:48.421Z,1011.85
2022-12-11T02:42:48.837Z,1011.87
2022-12-11T02:43:49.151Z,1011.80
2022-12-11T02:44:49.508Z,1011.84
2022-12-11T02:45:49.915Z,1011.82
2022-12-11T02:46:50.242Z,1011.78
2022-12-11T02:47:50.627Z,1011.81
2022-12-11T02:48:50.981Z,1011.79
2022-12-11T02:49:51.328Z,1011.78
2022-12-11T02:50:51.687Z,1011.73
2022-12-11T02:51:52.043Z,1011.75
2022-12-11T02:52:52.426Z,1011.75
2022-12-11T02:53:52.776Z,1011.76
2022-12-11T02:54:53.127Z,1011.70
2022-12-11T02:55:53.492Z,1011.76
2022-12-11T02:56:53.848Z,1011.74
2022-12-11T02:57:54.226Z,1011.70
2022-12-11T02:58:58.501Z,1011.76
2022-12-11T02:59:54.959Z,1011.71
2022-12-11T03:00:55.486Z,1011.73
2022-12-11T03:01:55.717Z,1011.70
2022-12-11T03:02:56.085Z,1011.67
2022-12-11T03:03:56.443Z,1011.67
2022-12-11T03:04:56.793Z,1011.66
2022-12-11T03:05:57.160Z,1011.62
2022-12-11T03:06:57.513Z,1011.69
2022-12-11T03:07:57.932Z,1011.67
2022-12-11T03:08:58.261Z,1011.68
2022-12-11T03:09:58.639Z,1011.68
2022-12-11T03:10:58.969Z,1011.67
2022-12-11T03:11:59.322Z,1011.66
2022-12-11T03:12:59.700Z,1011.68
2022-12-11T03:14:00.042Z,1011.65
2022-12-11T03:15:00.404Z,1011.67
2022-12-11T03:16:00.785Z,1011.69
2022-12-11T03:17:01.125Z,1011.72
2022-12-11T03:18:01.514Z,1011.72
2022-12-11T03:19:01.849Z,1011.71
2022-12-11T03:20:02.202Z,1011.73
2022-12-11T03:21:02.564Z,1011.71
2022-12-11T03:22:02.924Z,1011.70
2022-12-11T03:23:03.296Z,1011.74
2022-12-11T03:24:03.643Z,1011.78
2022-12-11T03:25:03.995Z,1011.76
2022-12-11T03:26:04.356Z,1011.75
2022-12-11T03:27:10.829Z,1011.78
2022-12-11T03:28:05.089Z,1011.77
2022-12-11T03:29:05.436Z,1011.75
2022-12-11T03:30:05.816Z,1011.77
2022-12-11T03:31:06.185Z,1011.76
2022-12-11T03:32:06.534Z,1011.81
2022-12-11T03:33:06.896Z,1011.82
2022-12-11T03:34:07.243Z,1011.75
2022-12-11T03:35:07.601Z,1011.80
2022-12-11T03:36:07.958Z,1011.82
2022-12-11T03:37:08.322Z,1011.76
2022-12-11T03:38:08.702Z,1011.79
2022-12-11T03:39:09.051Z,1011.78
2022-12-11T03:40:09.429Z,1011.73
2022-12-11T03:41:09.789Z,1011.75
2022-12-11T03:42:10.147Z,1011.74
2022-12-11T03:43:10.556Z,1011.69
2022-12-11T03:44:10.865Z,1011.70
2022-12-11T03:45:11.628Z,1011.69
2022-12-11T03:46:11.685Z,1011.71
2022-12-11T03:47:11.981Z,1011.72
2022-12-11T03:48:12.360Z,1011.70
2022-12-11T03:49:12.715Z,1011.75
2022-12-11T03:50:13.062Z,1011.75
2022-12-11T03:51:13.425Z,1011.77
2022-12-11T03:52:13.802Z,1011.76
2022-12-11T03:53:14.211Z,1011.75
2022-12-11T03:54:14.516Z,1011.73
2022-12-11T03:55:14.872Z,1011.76
2022-12-11T03:56:15.228Z,1011.72
2022-12-11T03:57:15.583Z,1011.70
2022-12-11T03:58:15.964Z,1011.67
2022-12-11T03:59:16.316Z,1011.68
2022-12-11T04:00:16.676Z,1011.70
2022-12-11T04:01:17.037Z,1011.74
2022-12-11T04:02:17.391Z,1011.73
2022-12-11T04:03:17.790Z,1011.70
2022-12-11T04:04:18.169Z,1011.73
2022-12-11T04:05:18.502Z,1011.78
2022-12-11T04:06:18.859Z,1011.78
2022-12-11T04:07:19.242Z,1011.78
2022-12-11T04:08:19.601Z,1011.76
2022-12-11T04:09:19.905Z,1011.70
2022-12-11T04:10:20.254Z,1011.74
2022-12-11T04:11:20.596Z,1011.70
2022-12-11T04:12:20.941Z,1011.71
2022-12-11T04:13:21.315Z,1011.65
2022-12-11T04:14:21.692Z,1011.63
2022-12-11T04:15:22.038Z,1011.64
2022-12-11T04:16:22.421Z,1011.65
2022-12-11T04:17:22.747Z,1011.65
2022-12-11T04:18:23.113Z,1011.58
2022-12-11T04:19:23.476Z,1011.62
2022-12-11T04:20:23.814Z,1011.59
2022-12-11T04:21:24.196Z,1011.59
2022-12-11T04:22:24.544Z,1011.57
2022-12-11T04:23:24.913Z,1011.62
2022-12-11T04:24:25.270Z,1011.62
2022-12-11T04:25:25.662Z,1011.60
2022-12-11T04:26:26.013Z,1011.62
2022-12-11T04:27:26.373Z,1011.63
2022-12-11T04:28:26.749Z,1011.65
2022-12-11T04:29:27.098Z,1011.63
2022-12-11T04:30:33.755Z,1011.63
2022-12-11T04:31:27.810Z,1011.65
2022-12-11T04:32:28.189Z,1011.62
2022-12-11T04:33:28.536Z,1011.63
2022-12-11T04:34:28.899Z,1011.65
2022-12-11T04:35:29.251Z,1011.62
2022-12-11T04:36:29.601Z,1011.67
2022-12-11T04:37:29.968Z,1011.63
2022-12-11T04:38:30.342Z,1011.59
2022-12-11T04:39:30.687Z,1011.58
2022-12-11T04:40:31.035Z,1011.59
2022-12-11T04:41:31.391Z,1011.57
2022-12-11T04:42:31.755Z,1011.61
2022-12-11T04:43:32.161Z,1011.61
2022-12-11T04:44:32.473Z,1011.54
2022-12-11T04:45:32.844Z,1011.58
2022-12-11T04:46:33.339Z,1011.59
2022-12-11T04:47:33.537Z,1011.60
2022-12-11T04:48:33.911Z,1011.61
2022-12-11T04:49:34.259Z,1011.62
2022-12-11T04:50:34.625Z,1011.59
2022-12-11T04:51:34.974Z,1011.60
2022-12-11T04:52:35.328Z,1011.60
2022-12-11T04:53:35.704Z,1011.56
2022-12-11T04:54:36.050Z,1011.56
2022-12-11T04:55:36.411Z,1011.57
2022-12-11T04:56:36.757Z,1011.57
2022-12-11T04:57:37.112Z,1011.57
2022-12-11T04:58:37.482Z,1011.56
2022-12-11T04:59:37.838Z,1011.58
2022-12-11T05:00:38.192Z,1011.57
2022-12-11T05:01:38.660Z,1011.56
2022-12-11T05:02:38.958Z,1011.58
2022-12-11T05:03:39.295Z,1011.61
2022-12-11T05:04:39.640Z,1011.57
2022-12-11T05:05:40.004Z,1011.56
2022-12-11T05:06:40.362Z,1011.55
2022-12-11T05:07:40.720Z,1011.56
2022-12-11T05:08:41.090Z,1011.51
2022-12-11T05:09:41.431Z,1011.53
2022-12-11T05:10:45.753Z,1011.52
2022-12-11T05:11:42.143Z,1011.56
2022-12-11T05:12:42.498Z,1011.60
2022-12-11T05:13:42.873Z,1011.64
2022-12-11T05:14:43.224Z,1011.57
2022-12-11T05:15:43.664Z,1011.57
2022-12-11T05:16:43.955Z,1011.60
2022-12-11T05:17:44.323Z,1011.55
2022-12-11T05:18:44.706Z,1011.58
2022-12-11T05:19:45.059Z,1011.58
2022-12-11T05:20:45.426Z,1011.59
2022-12-11T05:21:45.774Z,1011.56
2022-12-11T05:22:46.122Z,1011.60
2022-12-11T05:23:46.489Z,1011.69
2022-12-11T05:24:46.841Z,1011.65
2022-12-11T05:25:47.188Z,1011.60
2022-12-11T05:26:47.545Z,1011.65
2022-12-11T05:27:47.896Z,1011.60
2022-12-11T05:28:48.277Z,1011.63
2022-12-11T05:29:48.627Z,1011.58
2022-12-11T05:30:48.987Z,1011.60
2022-12-11T05:31:49.350Z,1011.57
2022-12-11T05:32:49.710Z,1011.59
2022-12-11T05:33:50.080Z,1011.58
2022-12-11T05:34:50.428Z,1011.61
2022-12-11T05:35:50.783Z,1011.60
2022-12-11T05:36:51.137Z,1011.55
2022-12-11T05:37:51.511Z,1011.53
2022-12-11T05:38:51.876Z,1011.57
2022-12-11T05:39:52.227Z,1011.53
2022-12-11T05:40:52.585Z,1011.55
2022-12-11T05:41:52.944Z,1011.57
2022-12-11T05:42:53.297Z,1011.56
2022-12-11T05:43:53.732Z,1011.56
2022-12-11T05:44:53.993Z,1011.56
2022-12-11T05:45:54.355Z,1011.54
2022-12-11T05:46:54.768Z,1011.59
2022-12-11T05:47:55.077Z,1011.52
2022-12-11T05:48:55.464Z,1011.64
2022-12-11T05:49:55.815Z,1011.55
2022-12-11T05:50:56.171Z,1011.57
2022-12-11T05:51:56.525Z,1011.60
2022-12-11T05:52:56.910Z,1011.61
2022-12-11T05:53:57.283Z,1011.56
2022-12-11T05:54:57.638Z,1011.63
2022-12-11T05:55:57.992Z,1011.62
2022-12-11T05:56:58.347Z,1011.57
2022-12-11T05:57:58.702Z,1011.58
2022-12-11T05:58:59.079Z,1011.59
2022-12-11T05:59:59.409Z,1011.59
2022-12-11T06:00:59.775Z,1011.58
2022-12-11T06:02:00.251Z,1011.58
2022-12-11T06:03:00.627Z,1011.58
2022-12-11T06:04:00.870Z,1011.58
2022-12-11T06:05:01.210Z,1011.61
2022-12-11T06:06:01.562Z,1011.60
2022-12-11T06:07:01.958Z,1011.62
2022-12-11T06:08:02.365Z,1011.71
2022-12-11T06:09:02.715Z,1011.75
2022-12-11T06:10:03.063Z,1011.79
2022-12-11T06:11:03.422Z,1011.72
2022-12-11T06:12:03.773Z,1011.78
2022-12-11T06:13:04.143Z,1011.74
2022-12-11T06:14:04.501Z,1011.79
2022-12-11T06:15:04.869Z,1011.81
2022-12-11T06:16:05.269Z,1011.79
2022-12-11T06:17:05.569Z,1011.77
2022-12-11T06:18:05.963Z,1011.77
2022-12-11T06:19:06.337Z,1011.72
2022-12-11T06:20:06.683Z,1011.70
2022-12-11T06:21:07.041Z,1011.69
2022-12-11T06:22:07.397Z,1011.72
2022-12-11T06:23:07.753Z,1011.67
2022-12-11T06:24:08.163Z,1011.64
2022-12-11T06:25:08.686Z,1011.69
2022-12-11T06:26:08.862Z,1011.59
2022-12-11T06:27:09.216Z,1011.57
2022-12-11T06:28:09.579Z,1011.61
2022-12-11T06:29:12.891Z,1011.61
2022-12-11T06:30:10.316Z,1011.58
2022-12-11T06:31:10.719Z,1011.61
2022-12-11T06:32:11.060Z,1011.59
2022-12-11T06:33:11.408Z,1011.60
2022-12-11T06:34:11.809Z,1011.60
2022-12-11T06:35:12.498Z,1011.57
2022-12-11T06:36:12.496Z,1011.56
2022-12-11T06:37:12.857Z,1011.56
2022-12-11T06:38:13.213Z,1011.56
2022-12-11T06:39:13.584Z,1011.53
2022-12-11T06:40:13.931Z,1011.49
2022-12-11T06:41:14.296Z,1011.52
2022-12-11T06:42:14.653Z,1011.62
2022-12-11T06:43:15.053Z,1011.61
2022-12-11T06:44:15.441Z,1011.55
2022-12-11T06:45:15.815Z,1011.65
2022-12-11T06:46:16.309Z,1011.58
2022-12-11T06:47:16.329Z,1011.56
2022-12-11T06:48:16.492Z,1011.57
2022-12-11T06:49:16.679Z,1011.60
2022-12-11T06:50:16.937Z,1011.53
2022-12-11T06:51:17.246Z,1011.59
2022-12-11T06:52:18.666Z,1011.59
2022-12-11T06:53:17.604Z,1011.53
2022-12-11T06:54:17.775Z,1011.57
2022-12-11T06:55:17.955Z,1011.49
2022-12-11T06:56:18.220Z,1011.57
2022-12-11T06:57:18.384Z,1011.56
2022-12-11T06:58:18.549Z,1011.59
2022-12-11T06:59:18.753Z,1011.59
2022-12-11T07:00:18.944Z,1011.57
2022-12-11T07:01:19.140Z,1011.61
2022-12-11T07:02:19.322Z,1011.63
2022-12-11T07:03:19.435Z,1011.61
2022-12-11T07:04:19.637Z,1011.65
2022-12-11T07:05:20.412Z,1011.67
2022-12-11T07:06:20.092Z,1011.64
2022-12-11T07:07:20.379Z,1011.64
2022-12-11T07:08:20.723Z,1011.69
2022-12-11T07:09:20.972Z,1011.75
2022-12-11T07:10:21.250Z,1011.75
2022-12-11T07:11:21.434Z,1011.79
2022-12-11T07:12:21.725Z,1011.75
2022-12-11T07:13:21.913Z,1011.74
2022-12-11T07:14:22.097Z,1011.72
2022-12-11T07:15:22.385Z,1011.77
2022-12-11T07:16:22.642Z,1011.74
2022-12-11T07:17:22.849Z,1011.76
2022-12-11T07:18:23.030Z,1011.81
2022-12-11T07:19:23.236Z,1011.81
2022-12-11T07:20:23.518Z,1011.78
2022-12-11T07:21:23.807Z,1011.87
2022-12-11T07:22:23.974Z,1011.91
2022-12-11T07:23:24.302Z,1011.91
2022-12-11T07:24:24.455Z,1011.91
2022-12-11T07:25:24.617Z,1011.95
2022-12-11T07:26:24.799Z,1011.96
2022-12-11T07:27:24.983Z,1011.92
2022-12-11T07:28:25.186Z,1011.95
2022-12-11T07:29:25.382Z,1011.97
2022-12-11T07:30:25.533Z,1011.94
2022-12-11T07:31:25.784Z,1011.95
2022-12-11T07:32:26.090Z,1012.00
2022-12-11T07:33:26.067Z,1012.00
2022-12-11T07:34:26.262Z,1012.01
2022-12-11T07:35:26.425Z,1012.01
2022-12-11T07:36:26.586Z,1012.04
2022-12-11T07:37:26.775Z,1012.01
2022-12-11T07:38:26.956Z,1012.03
2022-12-11T07:39:27.140Z,1012.02
2022-12-11T07:40:27.403Z,1012.06
2022-12-11T07:41:27.509Z,1012.04
2022-12-11T07:42:27.653Z,1012.03
2022-12-11T07:43:27.825Z,1012.04
2022-12-11T07:44:28.041Z,1012.06
2022-12-11T07:45:28.218Z,1012.03
2022-12-11T07:46:28.322Z,1012.01
2022-12-11T07:47:28.507Z,1011.98
2022-12-11T07:48:28.662Z,1011.96
2022-12-11T07:49:28.867Z,1011.96
2022-12-11T07:50:29.049Z,1011.91
2022-12-11T07:51:29.212Z,1011.93
2022-12-11T07:52:29.375Z,1011.95
2022-12-11T07:53:29.560Z,1011.96
2022-12-11T07:54:29.759Z,1011.97
2022-12-11T07:55:29.920Z,1011.93
2022-12-11T07:56:30.102Z,1011.91
2022-12-11T07:57:30.300Z,1011.87
2022-12-11T07:58:30.461Z,1011.89
2022-12-11T07:59:30.655Z,1011.86
2022-12-11T08:00:30.816Z,1011.91
2022-12-11T08:01:31.046Z,1011.93
2022-12-11T08:02:35.592Z,1011.87
2022-12-11T08:03:31.371Z,1011.91
2022-12-11T08:04:31.548Z,1011.89
2022-12-11T08:05:31.702Z,1011.90
2022-12-11T08:06:31.879Z,1011.92
2022-12-11T08:07:32.049Z,1011.86
2022-12-11T08:08:32.207Z,1011.90
2022-12-11T08:09:32.394Z,1011.89
2022-12-11T08:10:32.558Z,1011.92
2022-12-11T08:11:32.742Z,1011.92
2022-12-11T08:12:32.942Z,1011.90
2022-12-11T08:13:33.146Z,1011.94
2022-12-11T08:14:33.463Z,1011.90
2022-12-11T08:15:33.631Z,1011.91
2022-12-11T08:16:33.822Z,1011.87
2022-12-11T08:17:38.426Z,1011.90
2022-12-11T08:18:34.153Z,1011.90
2022-12-11T08:19:34.345Z,1011.95
2022-12-11T08:20:34.542Z,1011.93
2022-12-11T08:21:34.732Z,1011.94
2022-12-11T08:22:34.913Z,1011.93
2022-12-11T08:23:35.103Z,1011.99
2022-12-11T08:24:35.419Z,1011.93
2022-12-11T08:25:35.565Z,1011.98
2022-12-11T08:26:35.747Z,1011.93
2022-12-11T08:27:35.916Z,1012.03
2022-12-11T08:28:36.118Z,1011.96
2022-12-11T08:29:37.237Z,1011.95
2022-12-11T08:30:36.544Z,1011.96
2022-12-11T08:31:36.682Z,1011.98
2022-12-11T08:32:36.890Z,1012.01
2022-12-11T08:33:37.076Z,1011.93
2022-12-11T08:34:37.269Z,1011.94
2022-12-11T08:35:37.435Z,1011.91
2022-12-11T08:36:37.673Z,1011.93
2022-12-11T08:37:37.820Z,1011.97
2022-12-11T08:38:38.023Z,1011.98
2022-12-11T08:39:38.221Z,1012.00
2022-12-11T08:40:38.410Z,1012.00
2022-12-11T08:41:38.610Z,1012.04
2022-12-11T08:42:38.787Z,1012.07
2022-12-11T08:43:38.976Z,1012.05
2022-12-11T08:44:39.221Z,1012.09
2022-12-11T08:45:39.344Z,1012.06
2022-12-11T08:46:39.529Z,1012.05
2022-12-11T08:47:39.736Z,1012.01
2022-12-11T08:48:39.896Z,1011.98
2022-12-11T08:49:40.104Z,1011.99
2022-12-11T08:50:40.303Z,1011.95
2022-12-11T08:51:40.496Z,1011.92
2022-12-11T08:52:40.718Z,1011.94
2022-12-11T08:53:40.887Z,1011.91
2022-12-11T08:54:41.116Z,1011.91
2022-12-11T08:55:41.263Z,1011.95
2022-12-11T08:56:41.448Z,1011.93
2022-12-11T08:57:41.641Z,1011.95
2022-12-11T08:58:41.868Z,1011.95
2022-12-11T08:59:42.045Z,1011.97
2022-12-11T09:00:42.228Z,1011.94
2022-12-11T09:01:42.458Z,1011.99
2022-12-11T09:02:42.633Z,1011.94
2022-12-11T09:03:42.800Z,1011.97
2022-12-11T09:04:42.987Z,1011.93
2022-12-11T09:05:43.179Z,1011.96
2022-12-11T09:06:43.367Z,1011.93
2022-12-11T09:07:43.564Z,1011.89
2022-12-11T09:08:48.565Z,1011.93
2022-12-11T09:09:43.953Z,1011.95
2022-12-11T09:10:44.124Z,1011.92
2022-12-11T09:11:44.312Z,1011.94
2022-12-11T09:12:44.506Z,1011.93
2022-12-11T09:13:44.695Z,1011.94
2022-12-11T09:14:44.916Z,1011.91
2022-12-11T09:15:45.080Z,1011.88
2022-12-11T09:16:45.245Z,1011.90
2022-12-11T09:17:45.446Z,1011.92
2022-12-11T09:18:45.631Z,1011.91
2022-12-11T09:19:45.860Z,1011.87
2022-12-11T09:20:46.014Z,1011.85
2022-12-11T09:21:46.194Z,1011.85
2022-12-11T09:22:46.378Z,1011.89
2022-12-11T09:23:46.561Z,1011.91
2022-12-11T09:24:46.764Z,1011.90
2022-12-11T09:25:46.955Z,1011.92
2022-12-11T09:26:47.150Z,1011.88
2022-12-11T09:27:47.344Z,1011.89
2022-12-11T09:28:47.545Z,1011.86
2022-12-11T09:29:47.758Z,1011.90
2022-12-11T09:30:47.977Z,1011.87
2022-12-11T09:31:48.096Z,1011.92
2022-12-11T09:32:48.299Z,1011.89
2022-12-11T09:33:48.502Z,1011.87
2022-12-11T09:34:48.707Z,1011.95
2022-12-11T09:35:48.897Z,1011.95
2022-12-11T09:36:49.108Z,1011.93
2022-12-11T09:37:49.267Z,1011.91
2022-12-11T09:38:49.440Z,1011.90
2022-12-11T09:39:49.649Z,1011.93
2022-12-11T09:40:49.830Z,1011.89
2022-12-11T09:41:50.021Z,1011.87
2022-12-11T09:42:50.214Z,1011.91
2022-12-11T09:43:50.399Z,1011.81
2022-12-11T09:44:50.661Z,1011.82
2022-12-11T09:45:50.841Z,1011.86
2022-12-11T09:46:51.053Z,1011.88
2022-12-11T09:47:51.166Z,1011.79
2022-12-11T09:48:51.361Z,1011.80
2022-12-11T09:49:51.557Z,1011.80
2022-12-11T09:50:51.712Z,1011.83
2022-12-11T09:51:51.907Z,1011.79
2022-12-11T09:52:52.103Z,1011.80
2022-12-11T09:53:52.295Z,1011.81
2022-12-11T09:54:52.498Z,1011.75
2022-12-11T09:55:52.692Z,1011.72
2022-12-11T09:56:52.877Z,1011.73
2022-12-11T09:57:53.055Z,1011.69
2022-12-11T09:58:53.257Z,1011.72
2022-12-11T09:59:53.451Z,1011.70
2022-12-11T10:00:53.606Z,1011.70
2022-12-11T10:01:53.825Z,1011.70
2022-12-11T10:02:54.034Z,1011.70
2022-12-11T10:03:54.198Z,1011.68
2022-12-11T10:04:54.386Z,1011.64
2022-12-11T10:05:57.333Z,1011.66
2022-12-11T10:06:54.768Z,1011.65
2022-12-11T10:07:55.011Z,1011.62
2022-12-11T10:08:55.146Z,1011.59
2022-12-11T10:09:55.339Z,1011.61
2022-12-11T10:10:55.533Z,1011.62
2022-12-11T10:11:56.866Z,1011.61
2022-12-11T10:12:55.901Z,1011.59
2022-12-11T10:13:56.087Z,1011.58
2022-12-11T10:14:56.369Z,1011.61
2022-12-11T10:15:56.518Z,1011.62
2022-12-11T10:16:56.642Z,1011.62
2022-12-11T10:18:02.926Z,1011.54
2022-12-11T10:18:57.019Z,1011.55
2022-12-11T10:19:57.224Z,1011.49
2022-12-11T10:20:57.410Z,1011.50
2022-12-11T10:21:57.620Z,1011.53
2022-12-11T10:22:57.810Z,1011.53
2022-12-11T10:23:58.009Z,1011.51
2022-12-11T10:25:10.680Z,1011.47
2022-12-11T10:25:58.402Z,1011.49
2022-12-11T10:26:58.584Z,1011.47
2022-12-11T10:27:58.773Z,1011.45
2022-12-11T10:28:59.013Z,1011.43
2022-12-11T10:29:59.200Z,1011.44
2022-12-11T10:30:59.400Z,1011.43
2022-12-11T10:31:59.522Z,1011.44
2022-12-11T10:32:59.692Z,1011.39
2022-12-11T10:33:59.900Z,1011.38
2022-12-11T10:35:00.079Z,1011.39
2022-12-11T10:36:00.246Z,1011.37
2022-12-11T10:37:00.765Z,1011.38
2022-12-11T10:38:00.623Z,1011.37
2022-12-11T10:39:00.805Z,1011.41
2022-12-11T10:40:01.027Z,1011.38
2022-12-11T10:41:01.174Z,1011.38
2022-12-11T10:42:01.370Z,1011.42
2022-12-11T10:43:01.585Z,1011.38
2022-12-11T10:44:01.741Z,1011.35
2022-12-11T10:45:01.996Z,1011.35
2022-12-11T10:46:02.147Z,1011.32
2022-12-11T10:47:02.274Z,1011.26
2022-12-11T10:48:02.449Z,1011.29
2022-12-11T10:49:02.648Z,1011.30
2022-12-11T10:50:02.938Z,1011.23
2022-12-11T10:51:03.154Z,1011.27
2022-12-11T10:52:03.300Z,1011.33
2022-12-11T10:53:03.467Z,1011.25
2022-12-11T10:54:07.125Z,1011.17
2022-12-11T10:55:03.837Z,1011.18
2022-12-11T10:56:04.016Z,1011.16
2022-12-11T10:57:04.216Z,1011.15
2022-12-11T10:58:04.386Z,1011.13
2022-12-11T10:59:04.690Z,1011.21
2022-12-11T11:00:04.890Z,1011.16
2022-12-11T11:01:05.033Z,1011.19
2022-12-11T11:02:05.311Z,1011.17
2022-12-11T11:03:05.460Z,1011.19
2022-12-11T11:04:05.708Z,1011.12
2022-12-11T11:05:05.945Z,1011.12
2022-12-11T11:06:06.100Z,1011.06
2022-12-11T11:07:06.282Z,1011.10
2022-12-11T11:08:06.527Z,1011.03
2022-12-11T11:09:06.635Z,1011.07
2022-12-11T11:10:06.857Z,1011.08
2022-12-11T11:11:06.995Z,1011.05
2022-12-11T11:12:08.187Z,1011.05
2022-12-11T11:13:07.349Z,1011.11
2022-12-11T11:14:07.549Z,1011.11
2022-12-11T11:15:07.749Z,1011.11
2022-12-11T11:16:08.033Z,1011.07
2022-12-11T11:17:08.214Z,1011.11
2022-12-11T11:18:08.494Z,1011.08
2022-12-11T11:19:08.680Z,1011.11
2022-12-11T11:20:08.875Z,1011.10
2022-12-11T11:21:09.015Z,1011.07
2022-12-11T11:22:09.191Z,1011.03
2022-12-11T11:23:09.355Z,1011.03
2022-12-11T11:24:09.534Z,1011.07
2022-12-11T11:25:09.994Z,1011.01
2022-12-11T11:26:09.867Z,1011.01
2022-12-11T11:27:13.893Z,1011.02
2022-12-11T11:28:10.309Z,1011.00
2022-12-11T11:29:10.413Z,1010.99
2022-12-11T11:30:10.596Z,1011.01
2022-12-11T11:31:10.857Z,1010.95
2022-12-11T11:32:10.902Z,1010.98
2022-12-11T11:33:11.093Z,1010.94
2022-12-11T11:34:11.261Z,1010.94
2022-12-11T11:35:11.948Z,1010.90
2022-12-11T11:36:11.631Z,1010.89
2022-12-11T11:37:11.806Z,1010.82
2022-12-11T11:38:11.997Z,1010.82
2022-12-11T11:39:12.171Z,1010.81
2022-12-11T11:40:12.339Z,1010.82
2022-12-11T11:41:15.131Z,1010.78
2022-12-11T11:42:12.697Z,1010.74
2022-12-11T11:43:12.891Z,1010.78
2022-12-11T11:44:13.062Z,1010.72
2022-12-11T11:45:13.681Z,1010.70
2022-12-11T11:46:13.584Z,1010.66
2022-12-11T11:47:13.736Z,1010.61
2022-12-11T11:48:14.032Z,1010.66
2022-12-11T11:49:14.213Z,1010.62
2022-12-11T11:50:14.395Z,1010.57
2022-12-11T11:51:14.565Z,1010.60
2022-12-11T11:52:14.745Z,1010.60
2022-12-11T11:53:14.919Z,1010.51
2022-12-11T11:54:15.077Z,1010.49
2022-12-11T11:55:20.286Z,1010.54
2022-12-11T11:56:15.446Z,1010.51
2022-12-11T11:57:15.611Z,1010.49
2022-12-11T11:58:15.771Z,1010.48
2022-12-11T11:59:15.955Z,1010.51
2022-12-11T12:00:16.143Z,1010.52
2022-12-11T12:01:16.321Z,1010.51
2022-12-11T12:02:16.495Z,1010.50
2022-12-11T12:03:16.801Z,1010.51
2022-12-11T12:04:16.996Z,1010.51
2022-12-11T12:05:17.208Z,1010.47
2022-12-11T12:06:17.352Z,1010.54
2022-12-11T12:07:17.526Z,1010.52
2022-12-11T12:08:17.987Z,1010.56
2022-12-11T12:09:18.066Z,1010.55